createdAt,value
2024-05-09T00:00:00.081Z,7.75
2024-05-09T00:05:00.158Z,7.63
2024-05-09T00:10:00.083Z,7.44
2024-05-09T00:15:00.117Z,7.38
2024-05-09T00:20:00.092Z,7.19
2024-05-09T00:25:00.086Z,7.19
2024-05-09T00:30:00.096Z,7.13
2024-05-09T00:35:00.198Z,6.94
2024-05-09T00:40:00.076Z,6.81
2024-05-09T00:45:00.069Z,6.63
2024-05-09T00:50:00.142Z,6.56
2024-05-09T00:55:00.141Z,6.44
2024-05-09T01:00:00.053Z,6.44
2024-05-09T01:05:00.192Z,6.38
2024-05-09T01:10:00.059Z,6.31
2024-05-09T01:15:00.115Z,6.31
2024-05-09T01:20:00.099Z,6.31
2024-05-09T01:25:00.077Z,6.25
2024-05-09T01:30:00.069Z,6.31
2024-05-09T01:35:00.271Z,6.38
2024-05-09T01:40:00.062Z,6.38
2024-05-09T01:45:00.079Z,6.31
2024-05-09T01:50:00.116Z,6.25
2024-05-09T01:55:02.098Z,6.13
2024-05-09T02:00:00.063Z,6.06
2024-05-09T02:05:00.257Z,5.94
2024-05-09T02:10:00.075Z,5.81
2024-05-09T02:15:00.170Z,5.88
2024-05-09T02:20:00.073Z,6.06
2024-05-09T02:25:00.080Z,6.13
2024-05-09T02:30:00.079Z,6.06
2024-05-09T02:35:00.162Z,5.94
2024-05-09T02:40:00.063Z,5.81
2024-05-09T02:45:00.081Z,5.88
2024-05-09T02:50:00.080Z,6.06
2024-05-09T02:55:00.133Z,6.06
2024-05-09T03:00:00.062Z,5.94
2024-05-09T03:05:00.087Z,5.75
2024-05-09T03:10:00.064Z,5.63
2024-05-09T03:15:00.136Z,5.44
2024-05-09T03:20:00.132Z,5.38
2024-05-09T03:25:00.075Z,5.25
2024-05-09T03:30:00.066Z,5.13
2024-05-09T03:35:00.126Z,5
2024-05-09T03:40:00.062Z,5
2024-05-09T03:45:00.093Z,5.13
2024-05-09T03:50:00.096Z,5.31
2024-05-09T03:55:00.103Z,5.44
2024-05-09T04:00:00.089Z,5.44
2024-05-09T04:05:00.104Z,5.44
2024-05-09T04:10:00.079Z,5.44
2024-05-09T04:15:00.090Z,5.5
2024-05-09T04:20:00.115Z,5.56
2024-05-09T04:25:00.059Z,5.5
2024-05-09T04:30:00.063Z,5.5
2024-05-09T04:35:00.147Z,5.5
2024-05-09T04:40:00.060Z,5.5
2024-05-09T04:45:00.072Z,5.5
2024-05-09T04:50:00.073Z,5.5
2024-05-09T04:55:00.094Z,5.5
2024-05-09T05:00:00.077Z,5.56
2024-05-09T05:05:00.142Z,5.5
2024-05-09T05:10:00.067Z,5.56
2024-05-09T05:15:00.163Z,5.63
2024-05-09T05:20:00.159Z,5.69
2024-05-09T05:25:00.085Z,5.88
2024-05-09T05:30:00.076Z,6.06
2024-05-09T05:35:00.120Z,6.13
2024-05-09T05:40:00.056Z,6.25
2024-05-09T05:45:00.082Z,6.31
2024-05-09T05:50:00.088Z,6.44
2024-05-09T05:55:00.090Z,6.56
2024-05-09T06:00:00.062Z,6.69
2024-05-09T06:05:00.135Z,6.94
2024-05-09T06:10:00.074Z,7.06
2024-05-09T06:15:00.126Z,7.31
2024-05-09T06:20:00.098Z,7.5
2024-05-09T06:25:00.068Z,7.81
2024-05-09T06:30:00.092Z,8
2024-05-09T06:35:00.136Z,8.38
2024-05-09T06:40:00.061Z,8.63
2024-05-09T06:45:00.081Z,9
2024-05-09T06:50:00.081Z,9.38
2024-05-09T06:55:00.106Z,9.69
2024-05-09T07:00:00.066Z,9.94
2024-05-09T07:05:00.201Z,10.25
2024-05-09T07:10:00.057Z,10.56
2024-05-09T07:15:00.128Z,10.81
2024-05-09T07:20:00.121Z,11.06
2024-05-09T07:25:00.092Z,11.31
2024-05-09T07:30:00.077Z,11.5
2024-05-09T07:35:00.173Z,11.69
2024-05-09T07:40:00.103Z,11.94
2024-05-09T07:45:11.135Z,12.19
2024-05-09T07:50:53.842Z,12.5
2024-05-09T07:55:00.411Z,12.81
2024-05-09T08:00:00.090Z,13.13
2024-05-09T08:05:00.148Z,13.5
2024-05-09T08:10:00.104Z,13.94
2024-05-09T08:15:00.095Z,14.31
2024-05-09T08:20:00.353Z,14.63
2024-05-09T08:25:00.093Z,15.06
2024-05-09T08:30:00.083Z,15.44
2024-05-09T08:35:00.192Z,15.94
2024-05-09T08:40:00.171Z,16.38
2024-05-09T08:45:00.064Z,16.69
2024-05-09T08:50:00.154Z,17.13
2024-05-09T08:55:00.139Z,17.69
2024-05-09T09:00:00.062Z,17.94
2024-05-09T09:05:00.205Z,18.06
2024-05-09T09:10:00.189Z,18
2024-05-09T09:15:00.216Z,18.31
2024-05-09T09:20:00.210Z,18.63
2024-05-09T09:25:00.127Z,18.81
2024-05-09T09:30:00.076Z,18.88
2024-05-09T09:35:00.141Z,19.06
2024-05-09T09:40:00.085Z,19.13
2024-05-09T09:45:04.055Z,19.19
2024-05-09T09:50:00.061Z,19
2024-05-09T09:55:00.121Z,19.06
2024-05-09T10:00:00.094Z,19.25
2024-05-09T10:05:00.141Z,19.38
2024-05-09T10:10:00.094Z,19.88
2024-05-09T10:15:00.227Z,20.38
2024-05-09T10:20:00.149Z,19.81
2024-05-09T10:25:01.527Z,19.94
2024-05-09T10:30:00.065Z,20
2024-05-09T10:35:00.242Z,20
2024-05-09T10:40:00.129Z,20.06
2024-05-09T10:45:00.069Z,20.38
2024-05-09T10:50:00.085Z,20.19
2024-05-09T10:55:01.546Z,19.69
2024-05-09T11:00:00.067Z,20.13
2024-05-09T11:05:00.071Z,20.63
2024-05-09T11:10:00.097Z,20.56
2024-05-09T11:15:00.110Z,20.88
2024-05-09T11:20:00.107Z,21.19
2024-05-09T11:25:00.081Z,21.25
2024-05-09T11:30:00.059Z,21.19
2024-05-09T11:35:00.130Z,21.44
2024-05-09T11:40:00.125Z,21.5
2024-05-09T11:45:00.062Z,21.5
2024-05-09T11:50:00.208Z,21.38
2024-05-09T11:55:00.106Z,20.94
2024-05-09T12:00:00.065Z,21.56
2024-05-09T12:05:00.112Z,22
2024-05-09T12:10:00.093Z,22.19
2024-05-09T12:15:00.094Z,22
2024-05-09T12:20:00.061Z,22.44
2024-05-09T12:25:00.105Z,22.31
2024-05-09T12:30:00.094Z,22.75
2024-05-09T12:35:00.095Z,22.63
2024-05-09T12:40:00.097Z,22.69
2024-05-09T12:45:00.104Z,22.75
2024-05-09T12:50:00.157Z,23.13
2024-05-09T12:55:00.325Z,22.44
2024-05-09T13:00:00.060Z,22.25
2024-05-09T13:05:00.129Z,22.94
2024-05-09T13:10:00.089Z,21.75
2024-05-09T13:15:00.119Z,21.63
2024-05-09T13:20:00.061Z,22.13
2024-05-09T13:25:00.114Z,22.69
2024-05-09T13:30:00.072Z,23.06
2024-05-09T13:35:00.124Z,22.19
2024-05-09T13:40:00.125Z,22
2024-05-09T13:45:00.067Z,22.31
2024-05-09T13:50:00.078Z,22.63
2024-05-09T13:55:00.346Z,22.81
2024-05-09T14:00:00.072Z,22
2024-05-09T14:05:00.183Z,22.5
2024-05-09T14:10:00.089Z,22.81
2024-05-09T14:15:00.131Z,23.31
2024-05-09T14:20:00.069Z,23.13
2024-05-09T14:25:00.146Z,22.88
2024-05-09T14:30:00.062Z,22.88
2024-05-09T14:35:00.143Z,23
2024-05-09T14:40:00.070Z,22.81
2024-05-09T14:45:00.061Z,22.94
2024-05-09T14:50:00.100Z,22.69
2024-05-09T14:55:00.823Z,22.56
2024-05-09T15:00:00.080Z,22.25
2024-05-09T15:05:00.149Z,21.5
2024-05-09T15:10:00.099Z,21.94
2024-05-09T15:15:00.120Z,22.5
2024-05-09T15:20:00.139Z,22.63
2024-05-09T15:25:00.075Z,21.69
2024-05-09T15:30:00.078Z,21.06
2024-05-09T15:35:00.169Z,21.19
2024-05-09T15:40:00.121Z,21.44
2024-05-09T15:45:00.082Z,21.75
2024-05-09T15:50:00.186Z,21.88
2024-05-09T15:55:00.131Z,21.63
2024-05-09T16:00:00.076Z,21.69
2024-05-09T16:05:00.174Z,21.38
2024-05-09T16:10:00.165Z,21.5
2024-05-09T16:15:00.129Z,21.38
2024-05-09T16:20:00.070Z,21.63
2024-05-09T16:25:00.122Z,21.5
2024-05-09T16:30:00.076Z,21.5
2024-05-09T16:35:00.192Z,21.38
2024-05-09T16:40:00.106Z,21.56
2024-05-09T16:45:00.068Z,21.44
2024-05-09T16:50:00.097Z,21.56
2024-05-09T16:55:00.110Z,21.19
2024-05-09T17:00:00.060Z,21.19
2024-05-09T17:05:00.189Z,20.94
2024-05-09T17:10:00.106Z,20.94
2024-05-09T17:15:00.132Z,21.19
2024-05-09T17:20:00.063Z,21.06
2024-05-09T17:25:00.100Z,20.69
2024-05-09T17:30:00.085Z,20.44
2024-05-09T17:35:00.151Z,20.38
2024-05-09T17:40:00.123Z,20.5
2024-05-09T17:45:00.149Z,20.44
2024-05-09T17:50:00.138Z,19.69
2024-05-09T17:55:00.242Z,19
2024-05-09T18:00:00.058Z,18.75
2024-05-09T18:05:00.228Z,18.69
2024-05-09T18:10:00.147Z,18.19
2024-05-09T18:15:00.080Z,17.63
2024-05-09T18:20:00.171Z,17.13
2024-05-09T18:25:00.108Z,16.75
2024-05-09T18:30:00.060Z,16.44
2024-05-09T18:35:00.143Z,16.13
2024-05-09T18:40:00.125Z,15.88
2024-05-09T18:45:00.077Z,15.63
2024-05-09T18:50:00.142Z,15.44
2024-05-09T18:55:00.160Z,15.25
2024-05-09T19:00:00.075Z,15.13
2024-05-09T19:05:00.111Z,15
2024-05-09T19:10:00.222Z,14.88
2024-05-09T19:15:00.111Z,14.75
2024-05-09T19:20:00.139Z,14.56
2024-05-09T19:25:00.090Z,14.44
2024-05-09T19:30:00.076Z,14.31
2024-05-09T19:35:00.119Z,14.19
2024-05-09T19:40:00.085Z,14.06
2024-05-09T19:45:00.070Z,14
2024-05-09T19:50:00.196Z,13.94
2024-05-09T19:55:00.117Z,13.88
2024-05-09T20:00:00.060Z,13.75
2024-05-09T20:05:00.206Z,13.63
2024-05-09T20:10:00.131Z,13.56
2024-05-09T20:15:00.380Z,13.5
2024-05-09T20:20:00.265Z,13.38
2024-05-09T20:25:00.136Z,13.19
2024-05-09T20:30:00.065Z,12.94
2024-05-09T20:35:00.107Z,12.81
2024-05-09T20:40:00.172Z,12.63
2024-05-09T20:45:00.071Z,12.44
2024-05-09T20:50:00.063Z,12.25
2024-05-09T20:55:00.250Z,12.19
2024-05-09T21:00:00.063Z,12.19
2024-05-09T21:05:00.283Z,12.19
2024-05-09T21:10:00.104Z,12.19
2024-05-09T21:15:00.110Z,12.06
2024-05-09T21:20:00.061Z,11.88
2024-05-09T21:25:00.072Z,11.75
2024-05-09T21:30:00.060Z,11.63
2024-05-09T21:35:00.128Z,11.5
2024-05-09T21:40:00.094Z,11.44
2024-05-09T21:45:00.058Z,11.38
2024-05-09T21:50:00.085Z,11.38
2024-05-09T21:55:00.115Z,11.31
2024-05-09T22:00:00.080Z,11.25
2024-05-09T22:05:00.210Z,11.19
2024-05-09T22:10:00.173Z,11.19
2024-05-09T22:15:00.125Z,10.94
2024-05-09T22:20:00.066Z,10.63
2024-05-09T22:25:00.198Z,10.38
2024-05-09T22:30:00.074Z,10.13
2024-05-09T22:35:00.230Z,9.94
2024-05-09T22:40:00.939Z,9.88
2024-05-09T22:45:00.079Z,9.81
2024-05-09T22:50:00.059Z,9.69
2024-05-09T22:55:00.159Z,9.63
2024-05-09T23:00:00.093Z,9.56
2024-05-09T23:05:00.200Z,9.69
2024-05-09T23:10:00.097Z,9.88
2024-05-09T23:15:00.100Z,9.88
2024-05-09T23:20:00.061Z,9.75
2024-05-09T23:25:00.137Z,9.69
2024-05-09T23:30:00.075Z,9.56
2024-05-09T23:35:00.306Z,9.31
2024-05-09T23:40:00.113Z,9.19
2024-05-09T23:45:00.077Z,9.13
2024-05-09T23:50:00.082Z,9.19
2024-05-09T23:55:00.333Z,9.19
